Airfield :
LOGIN :

Register | Disclaimer

   EN    FR    IT 

 










Legend :    VFR   Marginal VFR   IFR   Intensive IFR   Very Intensive IFR
Visi :
Ceiling :
>= 8 km
>= 3000ft
5 to 8 km
1000 to 3000 ft
1500m to 5 km
500 to 1000 ft
800 to 1500m
200 to 500 ft
< 800m
< 200 ft
Symbols :   Thunderstorms  Fog  Heavy snow  Heavy precipitations  Wind > 20 kt
SIGMETs :     Misc.  Thunderstorms  Icing  Turbulence  Mountain Waves  Volcanic Ashes







- Airport Elevation : 538 ft
- IATA code : TNF
- Download approach charts


LFPN - Toussus Le Noble

CURRENT METAR :
  • 241000Z AUTO 25007KT 220V300 CAVOK 17/09 Q1020 NOSIG

EXPIRED METARs :
  • 240930Z AUTO 22005KT 180V280 9999 FEW027 18/10 Q1020 NOSIG
  • 240900Z AUTO 21008KT 180V250 CAVOK 17/10 Q1020 NOSIG
  • 240830Z AUTO 22005KT 190V260 CAVOK 16/08 Q1020 NOSIG
  • 240800Z AUTO 23005KT 190V270 CAVOK 15/08 Q1020 NOSIG
  • 240730Z AUTO 23004KT CAVOK 14/08 Q1020 NOSIG

TAF TAF LFPN
Valid from the 24 at 09:00 until the 24 at 18:00 UTC


240800Z 2409/2418 22006KT 9999 SCT030
ATIS : +33 1 39 56 54 70
No reported NOTAMs for that airfield.



MET'MAP, your aeronautical weather chart ! - Copyright ORBIFLY December 2007 - Disclaimer

ORBIFLY MET'MAP TEAM :

Programming & Development : Alexandra Zaïnal
Concept & Development : Baudouin d'Aumeries
Co-Development & Prog : Marc-Olivier Méhu
Technical & hardware support : Manuel Goepfert

Contact : metmap@orbifly.com




SOURCES & CREDITS :

   NOAA